createdAt,value
2019-05-13T00:00:58.364Z,74.80
2019-05-13T00:03:25.771Z,74.60
2019-05-13T00:05:53.585Z,75.10
2019-05-13T00:08:21.884Z,75.00
2019-05-13T00:10:50.319Z,74.70
2019-05-13T00:13:17.758Z,74.90
2019-05-13T00:15:45.019Z,74.90
2019-05-13T00:18:14.407Z,75.40
2019-05-13T00:20:44.119Z,75.30
2019-05-13T00:23:11.097Z,75.00
2019-05-13T00:25:38.338Z,75.40
2019-05-13T00:28:05.687Z,75.10
2019-05-13T00:30:34.273Z,75.30
2019-05-13T00:33:03.878Z,75.90
2019-05-13T00:35:33.576Z,75.30
2019-05-13T00:38:00.475Z,75.50
2019-05-13T00:40:28.897Z,75.80
2019-05-13T00:42:56.272Z,76.00
2019-05-13T00:45:24.488Z,76.20
2019-05-13T00:47:53.703Z,76.00
2019-05-13T00:50:21.209Z,76.40
2019-05-13T00:52:49.968Z,76.50
2019-05-13T00:55:17.337Z,75.90
2019-05-13T00:57:44.708Z,76.30
2019-05-13T01:00:14.173Z,76.00
2019-05-13T01:02:44.332Z,76.40
2019-05-13T01:05:10.930Z,76.40
2019-05-13T01:07:38.022Z,76.50
2019-05-13T01:10:05.447Z,77.00
2019-05-13T01:12:34.512Z,76.50
2019-05-13T01:15:04.126Z,76.20
2019-05-13T01:17:33.933Z,76.30
2019-05-13T01:20:00.666Z,76.50
2019-05-13T01:22:28.049Z,76.50
2019-05-13T01:24:55.407Z,76.50
2019-05-13T01:27:23.945Z,77.10
2019-05-13T01:29:53.437Z,76.90
2019-05-13T01:32:23.685Z,77.10
2019-05-13T01:34:50.395Z,77.30
2019-05-13T01:37:17.818Z,77.90
2019-05-13T01:39:45.229Z,77.50
2019-05-13T01:42:13.736Z,78.00
2019-05-13T01:44:43.644Z,78.50
2019-05-13T01:47:10.672Z,78.30
2019-05-13T01:49:37.905Z,78.80
2019-05-13T01:52:05.311Z,78.80
2019-05-13T01:54:33.939Z,79.70
2019-05-13T01:57:04.103Z,79.00
2019-05-13T01:59:30.880Z,80.00
2019-05-13T02:01:58.161Z,80.40
2019-05-13T02:04:25.389Z,80.80
2019-05-13T02:06:54.379Z,80.90
2019-05-13T02:09:24.304Z,80.80
2019-05-13T02:11:53.689Z,81.70
2019-05-13T02:14:23.520Z,81.40
2019-05-13T02:16:50.201Z,81.20
2019-05-13T02:19:17.558Z,81.60
2019-05-13T02:21:44.887Z,81.10
2019-05-13T02:24:14.298Z,80.80
2019-05-13T02:26:43.196Z,81.20
2019-05-13T02:29:10.463Z,81.40
2019-05-13T02:31:46.608Z,81.30
2019-05-13T02:34:07.196Z,81.00
2019-05-13T02:36:34.658Z,81.80
2019-05-13T02:39:03.840Z,81.90
2019-05-13T02:41:34.144Z,82.30
2019-05-13T02:44:03.638Z,83.00
2019-05-13T02:46:33.679Z,83.00
2019-05-13T02:49:03.186Z,83.40
2019-05-13T02:51:32.842Z,83.40
2019-05-13T02:54:03.247Z,83.30
2019-05-13T02:56:28.826Z,82.50
2019-05-13T02:58:56.065Z,82.70
2019-05-13T03:01:23.251Z,83.30
2019-05-13T03:03:52.792Z,83.30
2019-05-13T03:06:22.215Z,83.00
2019-05-13T03:08:51.211Z,82.60
2019-05-13T03:11:18.106Z,82.10
2019-05-13T03:13:45.446Z,83.00
2019-05-13T03:16:25.222Z,82.90
2019-05-13T03:18:52.890Z,83.40
2019-05-13T03:21:23.233Z,83.20
2019-05-13T03:23:52.556Z,83.10
2019-05-13T03:26:19.163Z,83.10
2019-05-13T03:28:47.221Z,83.50
2019-05-13T03:31:17.447Z,83.90
2019-05-13T03:33:46.562Z,83.70
2019-05-13T03:36:16.786Z,83.90
2019-05-13T03:38:59.719Z,84.10
2019-05-13T03:41:13.872Z,84.30
2019-05-13T03:43:43.287Z,84.40
2019-05-13T03:46:12.253Z,84.70
2019-05-13T03:48:42.872Z,84.70
2019-05-13T03:51:08.911Z,84.70
2019-05-13T03:53:36.491Z,85.00
2019-05-13T03:56:04.617Z,85.20
2019-05-13T03:58:32.608Z,85.30
2019-05-13T04:01:02.805Z,85.50
2019-05-13T04:03:29.291Z,85.00
2019-05-13T04:05:56.954Z,85.60
2019-05-13T04:08:24.435Z,85.50
2019-05-13T04:10:52.638Z,85.80
2019-05-13T04:13:23.350Z,86.00
2019-05-13T04:15:52.644Z,85.60
2019-05-13T04:18:18.780Z,85.30
2019-05-13T04:20:46.360Z,85.10
2019-05-13T04:23:13.752Z,85.80
2019-05-13T04:25:44.446Z,85.40
2019-05-13T04:28:13.346Z,85.50
2019-05-13T04:30:43.337Z,85.60
2019-05-13T04:33:09.273Z,85.60
2019-05-13T04:35:36.746Z,85.40
2019-05-13T04:38:08.666Z,85.80
2019-05-13T04:40:33.441Z,85.90
2019-05-13T04:43:02.862Z,86.20
2019-05-13T04:45:33.056Z,85.20
2019-05-13T04:48:02.940Z,84.90
2019-05-13T04:50:32.669Z,85.10
2019-05-13T04:52:58.598Z,84.60
2019-05-13T04:55:25.948Z,84.30
2019-05-13T04:57:53.638Z,84.90
2019-05-13T05:01:02.088Z,84.60
2019-05-13T05:03:44.722Z,84.20
2019-05-13T05:06:22.723Z,84.20
2019-05-13T05:10:10.551Z,84.10
2019-05-13T05:12:43.926Z,83.80
2019-05-13T05:15:41.781Z,83.70
2019-05-13T05:19:07.881Z,83.60
2019-05-13T05:21:44.304Z,83.20
2019-05-13T05:24:34.711Z,82.70
2019-05-13T05:27:38.394Z,82.30
2019-05-13T05:30:21.787Z,82.30
2019-05-13T05:33:21.493Z,81.60
2019-05-13T05:36:41.501Z,81.20
2019-05-13T05:39:22.705Z,80.30
2019-05-13T05:41:53.262Z,79.60
2019-05-13T05:44:23.014Z,79.60
2019-05-13T05:46:53.251Z,79.20
2019-05-13T05:49:23.326Z,79.00
2019-05-13T05:51:52.744Z,79.20
2019-05-13T05:54:22.019Z,78.10
2019-05-13T05:56:52.977Z,77.70
2019-05-13T05:59:21.739Z,77.90
2019-05-13T06:01:52.625Z,77.90
2019-05-13T06:04:22.003Z,77.70
2019-05-13T06:06:52.049Z,77.40
2019-05-13T06:09:21.367Z,77.70
2019-05-13T06:11:48.615Z,77.30
2019-05-13T06:14:16.103Z,76.70
2019-05-13T06:16:43.485Z,77.20
2019-05-13T06:19:12.102Z,76.60
2019-05-13T06:21:41.893Z,75.90
2019-05-13T06:24:11.514Z,75.80
2019-05-13T06:26:38.076Z,75.50
2019-05-13T06:29:05.663Z,75.30
2019-05-13T06:31:33.371Z,75.00
2019-05-13T06:34:02.035Z,74.10
2019-05-13T06:36:31.610Z,74.10
2019-05-13T06:38:58.830Z,74.30
2019-05-13T06:41:26.177Z,74.20
2019-05-13T06:43:53.682Z,73.50
2019-05-13T06:46:21.896Z,73.30
2019-05-13T06:48:51.930Z,72.80
2019-05-13T06:51:18.842Z,73.50
2019-05-13T06:53:46.081Z,73.40
2019-05-13T06:56:13.525Z,72.90
2019-05-13T06:58:41.529Z,72.10
2019-05-13T07:01:11.428Z,71.40
2019-05-13T07:03:41.815Z,71.70
2019-05-13T07:06:07.817Z,72.90
2019-05-13T07:08:35.169Z,73.10
2019-05-13T07:11:17.122Z,71.90
2019-05-13T07:13:32.353Z,71.30
2019-05-13T07:16:01.382Z,70.80
2019-05-13T07:18:28.819Z,71.00
2019-05-13T07:20:56.205Z,72.00
2019-05-13T07:23:23.535Z,69.90
2019-05-13T07:25:52.540Z,70.20
2019-05-13T07:28:21.893Z,70.40
2019-05-13T07:30:51.443Z,70.40
2019-05-13T07:33:21.195Z,70.40
2019-05-13T07:35:47.852Z,69.30
2019-05-13T07:38:16.289Z,70.60
2019-05-13T07:40:44.121Z,69.60
2019-05-13T07:43:12.390Z,69.00
2019-05-13T07:45:42.385Z,69.60
2019-05-13T07:48:20.492Z,69.50
2019-05-13T07:50:51.507Z,68.80
2019-05-13T07:53:07.899Z,68.70
2019-05-13T07:55:35.143Z,69.30
2019-05-13T07:58:02.357Z,69.40
2019-05-13T08:00:32.407Z,68.60
2019-05-13T08:02:58.784Z,68.20
2019-05-13T08:05:26.026Z,68.50
2019-05-13T08:07:53.342Z,67.70
2019-05-13T08:10:21.923Z,67.00
2019-05-13T08:12:51.545Z,67.40
2019-05-13T08:15:18.658Z,66.20
2019-05-13T08:17:47.650Z,66.80
2019-05-13T08:20:15.946Z,66.80
2019-05-13T08:22:43.601Z,67.60
2019-05-13T08:25:12.583Z,67.00
2019-05-13T08:27:41.946Z,66.90
2019-05-13T08:30:11.872Z,66.60
2019-05-13T08:32:38.964Z,67.30
2019-05-13T08:35:09.100Z,66.30
2019-05-13T08:37:36.125Z,65.70
2019-05-13T08:40:04.067Z,65.70
2019-05-13T08:42:32.277Z,64.00
2019-05-13T08:45:01.776Z,63.70
2019-05-13T08:47:31.376Z,64.00
2019-05-13T08:50:01.649Z,62.40
2019-05-13T08:52:28.176Z,62.10
2019-05-13T08:54:55.588Z,63.60
2019-05-13T08:57:22.948Z,62.40
2019-05-13T08:59:51.592Z,62.70
2019-05-13T09:02:19.105Z,62.90
2019-05-13T09:04:46.303Z,63.40
2019-05-13T09:07:13.868Z,62.30
2019-05-13T09:09:42.039Z,61.70
2019-05-13T09:12:11.588Z,61.10
2019-05-13T09:14:41.478Z,61.70
2019-05-13T09:17:08.031Z,60.60
2019-05-13T09:19:35.414Z,60.90
2019-05-13T09:22:03.493Z,61.80
2019-05-13T09:24:36.685Z,58.70
2019-05-13T09:27:01.899Z,60.00
2019-05-13T09:29:31.917Z,56.60
2019-05-13T09:31:58.866Z,58.90
2019-05-13T09:34:27.460Z,58.00
2019-05-13T09:36:54.816Z,56.20
2019-05-13T09:39:22.821Z,56.10
2019-05-13T09:41:52.100Z,56.10
2019-05-13T09:44:21.713Z,57.10
2019-05-13T09:46:48.554Z,58.00
2019-05-13T09:49:20.169Z,57.70
2019-05-13T09:51:45.469Z,56.90
2019-05-13T09:54:12.856Z,57.60
2019-05-13T09:56:41.334Z,56.40
2019-05-13T09:59:11.525Z,56.40
2019-05-13T10:01:38.091Z,57.00
2019-05-13T10:04:05.570Z,56.20
2019-05-13T10:06:33.008Z,55.40
2019-05-13T10:09:02.281Z,56.70
2019-05-13T10:11:31.016Z,56.00
2019-05-13T10:13:58.363Z,55.90
2019-05-13T10:16:25.721Z,55.40
2019-05-13T10:18:53.012Z,56.50
2019-05-13T10:21:21.836Z,54.90
2019-05-13T10:23:49.855Z,56.20
2019-05-13T10:26:17.127Z,56.90
2019-05-13T10:28:44.852Z,55.70
2019-05-13T10:31:12.203Z,55.40
2019-05-13T10:33:41.803Z,56.00
2019-05-13T10:36:08.835Z,57.30
2019-05-13T10:38:36.151Z,56.20
2019-05-13T10:41:03.971Z,57.10
2019-05-13T10:43:32.759Z,54.80
2019-05-13T10:46:02.568Z,57.30
2019-05-13T10:48:30.773Z,54.80
2019-05-13T10:50:58.158Z,55.20
2019-05-13T10:53:25.422Z,54.00
2019-05-13T10:55:53.131Z,54.40
2019-05-13T10:58:23.285Z,55.60
2019-05-13T11:00:52.667Z,56.40
2019-05-13T11:03:22.925Z,56.00
2019-05-13T11:08:22.222Z,54.10
2019-05-13T11:10:49.242Z,54.30
2019-05-13T11:13:16.585Z,52.90
2019-05-13T11:15:45.387Z,52.50
2019-05-13T11:18:19.085Z,53.10
2019-05-13T11:20:43.163Z,53.40
2019-05-13T11:23:12.462Z,53.00
2019-05-13T11:25:41.658Z,53.50
2019-05-13T11:28:08.629Z,52.90
2019-05-13T11:30:35.924Z,54.70
2019-05-13T11:33:03.500Z,55.70
2019-05-13T11:35:31.950Z,53.90
2019-05-13T11:38:01.635Z,54.60
2019-05-13T11:40:31.672Z,52.80
2019-05-13T11:42:57.879Z,54.00
2019-05-13T11:45:25.085Z,54.20
2019-05-13T11:47:52.646Z,52.90
2019-05-13T11:50:22.323Z,53.00
2019-05-13T11:52:52.196Z,54.40
2019-05-13T11:55:18.725Z,54.30
2019-05-13T11:57:45.914Z,54.30
2019-05-13T12:00:14.535Z,55.40
2019-05-13T12:02:43.446Z,54.10
2019-05-13T12:05:11.048Z,53.50
2019-05-13T12:07:38.556Z,52.90
2019-05-13T12:10:12.278Z,53.10
2019-05-13T12:12:38.573Z,53.80
2019-05-13T12:15:25.830Z,51.90
2019-05-13T12:17:35.658Z,51.80
2019-05-13T12:20:03.321Z,53.30
2019-05-13T12:22:30.620Z,53.30
2019-05-13T12:24:58.102Z,53.20
2019-05-13T12:27:25.349Z,52.60
2019-05-13T12:29:53.201Z,51.20
2019-05-13T12:32:22.465Z,51.70
2019-05-13T12:34:52.745Z,51.70
2019-05-13T12:37:21.938Z,51.80
2019-05-13T12:39:48.290Z,49.40
2019-05-13T12:42:16.478Z,49.80
2019-05-13T12:45:00.283Z,51.00
2019-05-13T12:47:13.162Z,52.60
2019-05-13T12:49:43.800Z,50.80
2019-05-13T12:52:13.056Z,52.20
2019-05-13T12:54:43.073Z,51.90
2019-05-13T12:57:13.137Z,53.40
2019-05-13T12:59:39.111Z,51.80
2019-05-13T13:02:06.367Z,52.20
2019-05-13T13:04:33.899Z,52.70
2019-05-13T13:07:01.730Z,50.40
2019-05-13T13:09:32.576Z,51.50
2019-05-13T13:11:58.642Z,51.00
2019-05-13T13:14:34.924Z,51.50
2019-05-13T13:16:55.763Z,50.40
2019-05-13T13:19:23.171Z,50.00
2019-05-13T13:21:53.491Z,49.60
2019-05-13T13:24:23.627Z,50.70
2019-05-13T13:26:48.747Z,50.30
2019-05-13T13:29:16.092Z,49.50
2019-05-13T13:31:43.685Z,49.40
2019-05-13T13:34:16.471Z,50.50
2019-05-13T13:36:45.268Z,49.80
2019-05-13T13:39:13.726Z,50.70
2019-05-13T13:41:38.898Z,49.20
2019-05-13T13:44:06.647Z,49.40
2019-05-13T13:46:42.215Z,49.20
2019-05-13T13:49:03.973Z,48.00
2019-05-13T13:51:34.235Z,47.80
2019-05-13T13:54:00.623Z,48.00
2019-05-13T13:56:28.818Z,48.90
2019-05-13T13:58:56.101Z,49.40
2019-05-13T14:01:27.118Z,49.00
2019-05-13T14:03:53.158Z,49.60
2019-05-13T14:06:26.944Z,54.40
2019-05-13T14:07:25.302Z,51.10
2019-05-13T14:08:51.926Z,50.50
2019-05-13T14:11:19.071Z,51.80
2019-05-13T14:13:46.465Z,51.80
2019-05-13T14:16:24.975Z,50.40
2019-05-13T14:18:43.042Z,50.50
2019-05-13T14:21:10.590Z,49.10
2019-05-13T14:23:38.202Z,49.20
2019-05-13T14:26:05.609Z,48.60
2019-05-13T14:28:33.358Z,48.00
2019-05-13T14:31:01.979Z,48.80
2019-05-13T14:33:32.514Z,49.90
2019-05-13T14:36:01.325Z,49.30
2019-05-13T14:38:28.135Z,50.30
2019-05-13T14:40:56.522Z,51.50
2019-05-13T14:43:23.844Z,50.80
2019-05-13T14:45:52.095Z,50.60
2019-05-13T14:48:22.243Z,50.50
2019-05-13T14:50:49.010Z,50.40
2019-05-13T14:53:16.292Z,50.40
2019-05-13T14:55:43.986Z,51.60
2019-05-13T14:58:11.326Z,51.70
2019-05-13T15:00:38.725Z,50.90
2019-05-13T15:03:05.909Z,50.90
2019-05-13T15:05:33.186Z,50.50
2019-05-13T15:08:00.692Z,49.60
2019-05-13T15:10:28.068Z,50.70
2019-05-13T15:12:55.665Z,50.50
2019-05-13T15:15:22.939Z,50.40
2019-05-13T15:17:51.886Z,50.70
2019-05-13T15:20:21.624Z,50.50
2019-05-13T15:22:48.824Z,51.60
2019-05-13T15:25:16.060Z,50.60
2019-05-13T15:27:44.410Z,50.40
2019-05-13T15:30:17.829Z,48.90
2019-05-13T15:32:42.059Z,48.10
2019-05-13T15:35:10.961Z,47.90
2019-05-13T15:37:41.210Z,48.80
2019-05-13T15:40:08.193Z,48.10
2019-05-13T15:42:35.684Z,48.80
2019-05-13T15:45:03.732Z,48.60
2019-05-13T15:47:31.108Z,48.70
2019-05-13T15:49:58.534Z,49.30
2019-05-13T15:52:25.894Z,49.60
2019-05-13T15:54:53.154Z,50.30
2019-05-13T15:57:21.380Z,49.60
2019-05-13T15:59:48.744Z,49.00
2019-05-13T16:02:16.202Z,48.20
2019-05-13T16:04:52.491Z,48.60
2019-05-13T16:07:13.699Z,49.60
2019-05-13T16:09:42.037Z,50.10
2019-05-13T16:12:11.975Z,49.90
2019-05-13T16:14:38.663Z,50.80
2019-05-13T16:17:06.337Z,49.40
2019-05-13T16:19:33.712Z,49.00
2019-05-13T16:22:01.492Z,48.90
2019-05-13T16:24:28.858Z,49.30
2019-05-13T16:26:56.329Z,49.80
2019-05-13T16:29:23.690Z,49.90
2019-05-13T16:31:51.874Z,50.40
2019-05-13T16:34:22.122Z,50.10
2019-05-13T16:36:48.775Z,50.80
2019-05-13T16:39:16.105Z,50.30
2019-05-13T16:41:43.503Z,50.90
2019-05-13T16:44:11.991Z,50.80
2019-05-13T16:46:42.094Z,51.00
2019-05-13T16:49:12.090Z,51.80
2019-05-13T16:51:39.131Z,51.50
2019-05-13T16:54:06.388Z,52.40
2019-05-13T16:56:33.812Z,52.40
2019-05-13T16:59:01.703Z,52.10
2019-05-13T17:01:30.529Z,52.40
2019-05-13T17:03:58.035Z,52.10
2019-05-13T17:06:25.354Z,52.80
2019-05-13T17:08:52.588Z,52.70
2019-05-13T17:11:19.786Z,52.40
2019-05-13T17:13:47.115Z,52.50
2019-05-13T17:16:14.447Z,52.80
2019-05-13T17:18:41.946Z,52.60
2019-05-13T17:21:09.203Z,53.20
2019-05-13T17:23:36.594Z,53.20
2019-05-13T17:26:04.019Z,52.50
2019-05-13T17:28:34.030Z,52.80
2019-05-13T17:31:02.194Z,52.30
2019-05-13T17:33:31.992Z,52.30
2019-05-13T17:36:01.644Z,52.20
2019-05-13T17:38:28.942Z,52.20
2019-05-13T17:40:56.425Z,52.80
2019-05-13T17:43:23.655Z,52.70
2019-05-13T17:45:52.344Z,52.90
2019-05-13T17:48:28.613Z,52.90
2019-05-13T17:50:49.005Z,53.20
2019-05-13T17:53:17.460Z,53.30
2019-05-13T17:55:45.113Z,53.60
2019-05-13T17:58:12.427Z,53.60
2019-05-13T18:00:41.551Z,53.50
2019-05-13T18:03:11.430Z,54.20
2019-05-13T18:05:38.863Z,54.40
2019-05-13T18:08:06.367Z,53.70
2019-05-13T18:10:33.949Z,54.10
2019-05-13T18:13:01.794Z,53.40
2019-05-13T18:15:31.452Z,53.90
2019-05-13T18:17:58.870Z,54.20
2019-05-13T18:20:27.440Z,53.60
2019-05-13T18:22:54.809Z,53.10
2019-05-13T18:25:22.428Z,53.70
2019-05-13T18:27:52.057Z,52.70
2019-05-13T18:30:19.647Z,52.40
2019-05-13T18:32:46.836Z,53.00
2019-05-13T18:35:14.083Z,52.80
2019-05-13T18:37:41.906Z,52.30
2019-05-13T18:40:11.606Z,51.90
2019-05-13T18:42:39.193Z,52.50
2019-05-13T18:45:06.759Z,52.50
2019-05-13T18:47:34.163Z,52.90
2019-05-13T18:50:02.297Z,53.80
2019-05-13T18:52:31.366Z,52.70
2019-05-13T18:54:58.817Z,53.50
2019-05-13T18:57:27.134Z,53.30
2019-05-13T18:59:54.497Z,52.80
2019-05-13T19:02:21.887Z,53.30
2019-05-13T19:04:49.412Z,52.70
2019-05-13T19:07:16.669Z,53.20
2019-05-13T19:09:44.914Z,54.20
2019-05-13T19:12:12.096Z,53.40
2019-05-13T19:14:41.198Z,53.50
2019-05-13T19:17:08.803Z,53.00
2019-05-13T19:19:36.210Z,53.80
2019-05-13T19:22:03.910Z,52.70
2019-05-13T19:24:31.374Z,53.70
2019-05-13T19:26:58.967Z,53.20
2019-05-13T19:29:27.486Z,53.50
2019-05-13T19:31:55.108Z,52.80
2019-05-13T19:34:22.650Z,52.50
2019-05-13T19:36:51.578Z,53.40
2019-05-13T19:39:21.561Z,53.20
2019-05-13T19:41:48.680Z,53.50
2019-05-13T19:44:15.995Z,53.30
2019-05-13T19:46:43.392Z,53.30
2019-05-13T19:49:12.320Z,53.30
2019-05-13T19:51:41.558Z,53.40
2019-05-13T19:54:11.558Z,53.90
2019-05-13T19:56:38.477Z,53.90
2019-05-13T19:59:05.754Z,54.20
2019-05-13T20:01:33.443Z,54.10
2019-05-13T20:04:02.423Z,55.10
2019-05-13T20:06:32.022Z,55.10
2019-05-13T20:09:01.523Z,54.70
2019-05-13T20:11:28.643Z,54.90
2019-05-13T20:13:56.266Z,54.90
2019-05-13T20:16:23.828Z,55.70
2019-05-13T20:18:51.779Z,55.50
2019-05-13T20:21:19.307Z,55.70
2019-05-13T20:23:46.855Z,55.80
2019-05-13T20:26:14.087Z,57.50
2019-05-13T20:28:42.006Z,56.40
2019-05-13T20:31:11.065Z,56.60
2019-05-13T20:33:40.157Z,56.30
2019-05-13T20:36:08.291Z,55.80
2019-05-13T20:38:35.850Z,56.00
2019-05-13T20:41:03.199Z,56.40
2019-05-13T20:43:32.844Z,56.20
2019-05-13T20:46:01.962Z,55.90
2019-05-13T20:48:29.210Z,55.60
2019-05-13T20:50:56.624Z,56.20
2019-05-13T20:53:23.872Z,55.40
2019-05-13T20:55:52.058Z,56.30
2019-05-13T20:58:21.334Z,56.20
2019-05-13T21:00:48.879Z,56.30
2019-05-13T21:03:16.471Z,56.50
2019-05-13T21:05:43.730Z,56.60
2019-05-13T21:08:10.973Z,57.00
2019-05-13T21:10:38.726Z,56.70
2019-05-13T21:13:06.542Z,57.40
2019-05-13T21:15:33.979Z,56.80
2019-05-13T21:18:02.107Z,57.40
2019-05-13T21:20:31.938Z,57.50
2019-05-13T21:22:59.476Z,58.00
2019-05-13T21:25:26.910Z,58.30
2019-05-13T21:27:54.475Z,58.60
2019-05-13T21:30:22.271Z,58.70
2019-05-13T21:32:51.654Z,58.70
2019-05-13T21:35:21.078Z,58.60
2019-05-13T21:37:48.029Z,58.80
2019-05-13T21:40:17.346Z,58.90
2019-05-13T21:42:45.932Z,59.10
2019-05-13T21:45:13.225Z,58.90
2019-05-13T21:47:40.462Z,59.70
2019-05-13T21:50:08.411Z,59.70
2019-05-13T21:52:35.769Z,60.10
2019-05-13T21:55:03.176Z,60.00
2019-05-13T21:57:32.902Z,60.30
2019-05-13T22:00:02.013Z,60.20
2019-05-13T22:02:31.689Z,60.00
2019-05-13T22:05:00.941Z,60.80
2019-05-13T22:07:28.214Z,60.30
2019-05-13T22:09:55.422Z,60.90
2019-05-13T22:12:22.666Z,60.60
2019-05-13T22:14:51.740Z,61.80
2019-05-13T22:17:19.482Z,61.50
2019-05-13T22:19:46.763Z,60.80
2019-05-13T22:22:14.182Z,61.20
2019-05-13T22:24:41.932Z,61.00
2019-05-13T22:27:10.956Z,61.00
2019-05-13T22:29:41.325Z,61.20
2019-05-13T22:32:08.474Z,61.50
2019-05-13T22:34:35.733Z,61.80
2019-05-13T22:37:03.085Z,61.60
2019-05-13T22:39:34.221Z,61.60
2019-05-13T22:42:01.652Z,61.70
2019-05-13T22:44:29.283Z,61.50
2019-05-13T22:46:56.585Z,61.70
2019-05-13T22:49:24.563Z,61.20
2019-05-13T22:51:51.995Z,61.40
2019-05-13T22:54:21.186Z,61.90
2019-05-13T22:56:48.793Z,62.00
2019-05-13T22:59:16.233Z,61.50
2019-05-13T23:01:43.679Z,61.30
2019-05-13T23:04:11.486Z,61.50
2019-05-13T23:06:38.928Z,62.40
2019-05-13T23:09:06.284Z,61.60
2019-05-13T23:11:33.946Z,62.00
2019-05-13T23:14:09.682Z,62.10
2019-05-13T23:16:31.649Z,62.20
2019-05-13T23:18:59.017Z,62.30
2019-05-13T23:21:26.355Z,62.20
2019-05-13T23:23:53.983Z,63.00
2019-05-13T23:26:21.191Z,63.60
2019-05-13T23:28:48.559Z,63.90
2019-05-13T23:31:15.877Z,64.20
2019-05-13T23:33:43.395Z,63.90
2019-05-13T23:36:11.967Z,63.10
2019-05-13T23:38:41.368Z,62.80
2019-05-13T23:41:11.243Z,63.50
2019-05-13T23:43:38.538Z,64.30
2019-05-13T23:46:05.961Z,64.60
2019-05-13T23:48:33.533Z,65.00
2019-05-13T23:51:01.322Z,65.60
2019-05-13T23:53:31.509Z,65.60
2019-05-13T23:56:01.734Z,65.90
2019-05-13T23:58:28.832Z,66.30
